createdAt,value
2023-11-01T18:29:10.294Z,10.30
2023-11-01T18:31:45.168Z,6.97
2023-11-01T18:34:23.761Z,6.78
2023-11-01T18:36:56.792Z,7.75
2023-11-01T18:39:30.712Z,7.30
2023-11-01T18:42:03.252Z,7.58
2023-11-01T18:44:44.277Z,6.92
2023-11-01T18:47:18.154Z,6.72
2023-11-01T18:50:04.136Z,6.37
2023-11-01T18:52:36.757Z,11.53
2023-11-01T18:57:54.125Z,16.93
2023-11-01T19:00:29.861Z,8.48
2023-11-01T19:03:05.679Z,10.53
2023-11-01T19:05:40.946Z,7.12
2023-11-01T19:08:15.362Z,7.83
2023-11-01T19:10:51.122Z,8.20
2023-11-01T19:13:24.132Z,7.67
2023-11-01T19:16:07.248Z,7.12
2023-11-01T19:18:40.013Z,7.10
2023-11-01T19:21:13.573Z,7.42
2023-11-01T19:23:47.527Z,9.03
2023-11-01T19:26:26.791Z,6.70
2023-11-01T19:28:59.196Z,6.92
2023-11-01T19:31:31.845Z,5.87
2023-11-01T19:34:05.258Z,6.72
2023-11-01T19:36:39.720Z,9.25
2023-11-01T19:41:47.076Z,6.30
2023-11-01T19:44:20.286Z,7.70
2023-11-01T19:49:27.230Z,7.35
2023-11-01T19:51:59.610Z,7.17
2023-11-01T19:54:32.682Z,9.33
2023-11-01T19:59:41.255Z,8.60
2023-11-01T20:02:14.258Z,10.03
2023-11-01T20:04:50.125Z,8.80
2023-11-01T20:07:22.799Z,6.20
2023-11-01T20:09:57.105Z,6.60
2023-11-01T20:12:30.996Z,7.75
2023-11-01T20:15:05.644Z,8.00
2023-11-01T20:20:11.871Z,7.55
2023-11-01T20:22:44.980Z,7.40
2023-11-01T20:25:19.579Z,6.58
2023-11-01T20:27:53.493Z,6.87
2023-11-01T20:30:28.189Z,6.65
2023-11-01T20:35:43.590Z,6.50
2023-11-01T20:38:16.429Z,7.10
2023-11-01T20:40:49.537Z,6.45
2023-11-01T20:43:22.416Z,6.97
2023-11-01T20:45:56.487Z,7.65
2023-11-01T20:48:28.999Z,7.10
2023-11-01T20:51:04.902Z,7.15
2023-11-01T20:53:38.020Z,7.78
2023-11-01T20:56:13.163Z,9.58
2023-11-01T20:58:46.542Z,7.20
2023-11-01T21:01:21.431Z,6.78
2023-11-01T21:03:53.981Z,8.33
2023-11-01T21:06:28.513Z,7.58
2023-11-01T21:09:01.038Z,5.78
2023-11-01T21:11:34.451Z,8.58
2023-11-01T21:14:06.840Z,5.58
2023-11-01T21:16:43.120Z,7.92
2023-11-01T21:19:16.187Z,5.90
2023-11-01T21:24:24.631Z,6.03
2023-11-01T21:26:57.903Z,5.80
2023-11-01T21:29:31.544Z,5.28
2023-11-01T21:32:04.085Z,5.40
2023-11-01T21:34:37.423Z,6.45
2023-11-01T21:37:10.520Z,5.72
2023-11-01T21:39:44.426Z,6.37
2023-11-01T21:42:17.093Z,5.13
2023-11-01T21:44:49.691Z,4.67
2023-11-01T21:47:40.337Z,5.75
2023-11-01T21:50:20.636Z,5.28
2023-11-01T21:52:53.934Z,5.35
2023-11-01T21:56:17.360Z,4.35
2023-11-01T21:58:51.389Z,5.70
2023-11-01T22:01:24.524Z,5.87
2023-11-01T22:06:32.497Z,4.75
2023-11-01T22:09:14.953Z,5.60
2023-11-01T22:11:51.076Z,4.28
2023-11-01T22:14:30.087Z,5.95
2023-11-01T22:17:04.807Z,4.00
2023-11-01T22:19:44.661Z,4.58
2023-11-01T22:22:46.042Z,4.40
2023-11-01T22:25:30.867Z,5.12
2023-11-01T22:28:07.507Z,3.95
2023-11-01T22:30:40.446Z,4.90
2023-11-01T22:33:17.750Z,4.53
2023-11-01T22:35:50.728Z,6.33
2023-11-01T22:38:24.701Z,4.22
2023-11-01T22:40:57.228Z,3.77
2023-11-01T22:43:29.614Z,5.08
2023-11-01T22:46:03.419Z,5.37
2023-11-01T22:48:36.289Z,4.22
2023-11-01T22:51:09.086Z,4.78
2023-11-01T22:53:42.958Z,4.72
2023-11-01T22:56:16.819Z,3.33
2023-11-01T22:58:49.457Z,5.12
2023-11-01T23:01:22.159Z,3.60
2023-11-01T23:03:54.643Z,3.80
2023-11-01T23:06:28.483Z,5.47
2023-11-01T23:09:01.162Z,3.72
2023-11-01T23:11:34.821Z,3.70
2023-11-01T23:14:10.539Z,4.15
2023-11-01T23:16:43.756Z,3.85
2023-11-01T23:19:16.142Z,5.10
2023-11-01T23:21:48.980Z,5.85
2023-11-01T23:24:21.547Z,3.95
2023-11-01T23:27:03.299Z,3.80
2023-11-01T23:29:39.066Z,4.70
2023-11-01T23:32:19.028Z,3.50
2023-11-01T23:34:53.248Z,3.87
2023-11-01T23:37:37.663Z,6.62
2023-11-01T23:40:12.106Z,4.15
2023-11-01T23:45:39.677Z,4.45
2023-11-01T23:48:13.634Z,4.85
2023-11-01T23:50:45.928Z,3.98
2023-11-01T23:53:25.953Z,4.22
2023-11-01T23:55:58.534Z,3.80
2023-11-01T23:58:35.523Z,4.12
